createdAt,value
2022-11-18T00:00:21.596Z,25.8
2022-11-18T00:01:22.225Z,25.7
2022-11-18T00:02:22.833Z,25.0
2022-11-18T00:03:23.383Z,26.2
2022-11-18T00:04:23.980Z,24.2
2022-11-18T00:05:24.572Z,25.8
2022-11-18T00:06:25.201Z,24.9
2022-11-18T00:07:25.940Z,26.4
2022-11-18T00:08:26.560Z,26.1
2022-11-18T00:09:27.165Z,26.9
2022-11-18T00:10:27.761Z,25.5
2022-11-18T00:11:28.358Z,26.8
2022-11-18T00:12:28.952Z,26.3
2022-11-18T00:13:29.544Z,26.0
2022-11-18T00:14:30.159Z,25.5
2022-11-18T00:15:31.929Z,26.3
2022-11-18T00:16:32.341Z,27.0
2022-11-18T00:17:32.940Z,24.5
2022-11-18T00:18:33.529Z,24.9
2022-11-18T00:19:34.125Z,26.5
2022-11-18T00:20:34.721Z,25.8
2022-11-18T00:21:35.318Z,26.1
2022-11-18T00:22:35.909Z,25.3
2022-11-18T00:23:36.508Z,24.8
2022-11-18T00:24:37.099Z,25.0
2022-11-18T00:25:37.692Z,26.1
2022-11-18T00:26:38.287Z,25.5
2022-11-18T00:27:38.881Z,26.5
2022-11-18T00:28:39.476Z,26.3
2022-11-18T00:29:40.069Z,28.4
2022-11-18T00:30:40.672Z,27.1
2022-11-18T00:31:41.262Z,27.4
2022-11-18T00:32:41.875Z,26.8
2022-11-18T00:33:42.473Z,26.1
2022-11-18T00:34:43.061Z,26.1
2022-11-18T00:35:43.668Z,26.0
2022-11-18T00:36:44.261Z,27.3
2022-11-18T00:37:44.845Z,26.3
2022-11-18T00:38:45.442Z,25.6
2022-11-18T00:39:46.035Z,25.9
2022-11-18T00:40:46.631Z,26.7
2022-11-18T00:41:47.225Z,26.7
2022-11-18T00:42:47.859Z,27.0
2022-11-18T00:43:48.437Z,26.8
2022-11-18T00:44:49.039Z,27.4
2022-11-18T00:45:49.625Z,26.0
2022-11-18T00:46:50.220Z,26.7
2022-11-18T00:47:50.813Z,26.0
2022-11-18T00:48:51.408Z,26.8
2022-11-18T00:49:52.001Z,26.9
2022-11-18T00:50:52.596Z,25.8
2022-11-18T00:51:53.192Z,26.6
2022-11-18T00:52:53.783Z,26.3
2022-11-18T00:53:54.376Z,25.5
2022-11-18T00:54:54.973Z,26.1
2022-11-18T00:55:55.565Z,26.8
2022-11-18T00:56:56.159Z,26.9
2022-11-18T00:57:56.755Z,26.9
2022-11-18T00:58:57.351Z,27.4
2022-11-18T00:59:57.945Z,26.5
2022-11-18T01:00:58.605Z,26.9
2022-11-18T01:01:59.146Z,26.9
2022-11-18T01:02:59.739Z,26.9
2022-11-18T01:04:00.334Z,26.9
2022-11-18T01:05:00.931Z,26.2
2022-11-18T01:06:01.529Z,26.9
2022-11-18T01:07:02.191Z,28.5
2022-11-18T01:08:02.734Z,26.6
2022-11-18T01:09:03.328Z,26.0
2022-11-18T01:10:03.924Z,27.7
2022-11-18T01:11:04.536Z,27.0
2022-11-18T01:12:05.128Z,27.3
2022-11-18T01:13:05.723Z,27.4
2022-11-18T01:14:06.319Z,27.9
2022-11-18T01:15:06.913Z,26.4
2022-11-18T01:16:07.510Z,27.4
2022-11-18T01:17:08.101Z,27.5
2022-11-18T01:18:08.692Z,27.5
2022-11-18T01:19:09.287Z,27.2
2022-11-18T01:20:09.883Z,27.5
2022-11-18T01:21:10.477Z,26.6
2022-11-18T01:22:11.072Z,27.3
2022-11-18T01:23:11.666Z,27.1
2022-11-18T01:24:12.260Z,27.0
2022-11-18T01:25:12.855Z,26.1
2022-11-18T01:26:13.450Z,26.8
2022-11-18T01:27:14.042Z,26.9
2022-11-18T01:28:16.519Z,26.9
2022-11-18T01:29:16.545Z,25.7
2022-11-18T01:30:17.215Z,26.7
2022-11-18T01:31:17.815Z,27.6
2022-11-18T01:32:24.395Z,26.1
2022-11-18T01:33:20.013Z,26.7
2022-11-18T01:34:20.604Z,26.1
2022-11-18T01:35:21.218Z,27.4
2022-11-18T01:36:21.811Z,26.4
2022-11-18T01:37:22.408Z,26.6
2022-11-18T01:38:23.004Z,27.8
2022-11-18T01:39:23.598Z,26.0
2022-11-18T01:40:24.193Z,27.3
2022-11-18T01:41:24.790Z,27.4
2022-11-18T01:42:25.411Z,26.4
2022-11-18T01:43:25.995Z,27.1
2022-11-18T01:44:26.589Z,24.7
2022-11-18T01:45:27.183Z,25.4
2022-11-18T01:46:27.778Z,26.6
2022-11-18T01:47:28.372Z,25.8
2022-11-18T01:48:28.967Z,25.4
2022-11-18T01:49:29.567Z,27.1
2022-11-18T01:50:30.157Z,25.8
2022-11-18T01:51:30.750Z,25.8
2022-11-18T01:52:31.344Z,26.3
2022-11-18T01:53:31.941Z,27.0
2022-11-18T01:54:32.553Z,26.6
2022-11-18T01:55:33.173Z,25.9
2022-11-18T01:56:33.764Z,25.6
2022-11-18T01:57:34.360Z,25.5
2022-11-18T01:58:34.977Z,25.5
2022-11-18T01:59:35.583Z,25.7
2022-11-18T02:00:36.185Z,25.9
2022-11-18T02:01:36.813Z,26.0
2022-11-18T02:02:37.378Z,25.5
2022-11-18T02:03:37.985Z,25.8
2022-11-18T02:04:38.583Z,24.8
2022-11-18T02:05:39.194Z,25.2
2022-11-18T02:06:39.808Z,26.0
2022-11-18T02:07:40.447Z,25.2
2022-11-18T02:08:41.013Z,25.8
2022-11-18T02:09:41.634Z,26.3
2022-11-18T02:10:42.228Z,25.9
2022-11-18T02:11:42.877Z,26.1
2022-11-18T02:12:43.429Z,25.8
2022-11-18T02:13:44.021Z,25.9
2022-11-18T02:14:44.617Z,28.8
2022-11-18T02:15:45.210Z,25.8
2022-11-18T02:16:45.806Z,26.5
2022-11-18T02:17:46.397Z,24.9
2022-11-18T02:18:47.001Z,25.3
2022-11-18T02:19:47.611Z,25.0
2022-11-18T02:20:48.206Z,26.6
2022-11-18T02:21:48.819Z,25.4
2022-11-18T02:22:49.411Z,27.0
2022-11-18T02:23:50.006Z,25.1
2022-11-18T02:24:50.603Z,25.1
2022-11-18T02:25:51.196Z,26.6
2022-11-18T02:26:51.791Z,26.9
2022-11-18T02:27:52.405Z,25.5
2022-11-18T02:28:53.001Z,26.3
2022-11-18T02:29:53.597Z,26.3
2022-11-18T02:30:54.203Z,25.9
2022-11-18T02:31:54.797Z,26.7
2022-11-18T02:32:55.395Z,25.9
2022-11-18T02:33:55.985Z,26.2
2022-11-18T02:34:56.589Z,26.8
2022-11-18T02:35:57.200Z,26.9
2022-11-18T02:36:57.796Z,26.0
2022-11-18T02:37:58.391Z,26.8
2022-11-18T02:38:58.987Z,27.2
2022-11-18T02:39:59.581Z,25.3
2022-11-18T02:41:00.173Z,25.5
2022-11-18T02:42:00.764Z,26.3
2022-11-18T02:43:01.363Z,25.2
2022-11-18T02:44:01.955Z,26.4
2022-11-18T02:45:02.553Z,27.4
2022-11-18T02:46:03.143Z,27.3
2022-11-18T02:47:03.757Z,26.2
2022-11-18T02:48:04.349Z,25.8
2022-11-18T02:49:04.944Z,27.0
2022-11-18T02:50:05.538Z,26.9
2022-11-18T02:51:06.132Z,27.3
2022-11-18T02:52:06.728Z,25.4
2022-11-18T02:53:07.323Z,26.1
2022-11-18T02:54:07.913Z,27.9
2022-11-18T02:55:08.507Z,26.5
2022-11-18T02:56:09.099Z,28.1
2022-11-18T02:57:09.722Z,27.1
2022-11-18T02:58:10.306Z,26.6
2022-11-18T02:59:10.902Z,27.0
2022-11-18T03:00:11.511Z,26.9
2022-11-18T03:01:12.152Z,27.1
2022-11-18T03:02:12.717Z,26.6
2022-11-18T03:03:13.312Z,25.8
2022-11-18T03:04:13.905Z,27.2
2022-11-18T03:05:14.500Z,27.3
2022-11-18T03:06:15.095Z,27.3
2022-11-18T03:07:15.743Z,26.7
2022-11-18T03:08:16.283Z,27.3
2022-11-18T03:09:17.197Z,27.8
2022-11-18T03:10:17.898Z,27.7
2022-11-18T03:11:18.495Z,27.3
2022-11-18T03:12:19.087Z,26.6
2022-11-18T03:13:19.683Z,26.8
2022-11-18T03:14:20.276Z,25.8
2022-11-18T03:15:20.873Z,27.3
2022-11-18T03:16:21.467Z,27.6
2022-11-18T03:17:22.063Z,28.3
2022-11-18T03:18:22.676Z,27.9
2022-11-18T03:19:23.271Z,26.5
2022-11-18T03:20:23.861Z,26.4
2022-11-18T03:21:24.463Z,26.6
2022-11-18T03:22:25.051Z,27.5
2022-11-18T03:23:25.646Z,27.2
2022-11-18T03:24:26.243Z,27.8
2022-11-18T03:25:26.837Z,27.4
2022-11-18T03:26:27.431Z,26.4
2022-11-18T03:27:28.029Z,29.1
2022-11-18T03:28:28.623Z,26.5
2022-11-18T03:29:29.217Z,27.2
2022-11-18T03:30:29.813Z,26.5
2022-11-18T03:31:30.416Z,27.0
2022-11-18T03:32:30.998Z,28.1
2022-11-18T03:33:31.594Z,29.3
2022-11-18T03:34:32.187Z,28.9
2022-11-18T03:35:32.792Z,27.8
2022-11-18T03:36:33.381Z,27.5
2022-11-18T03:37:33.995Z,29.8
2022-11-18T03:38:34.589Z,38.7
2022-11-18T03:39:35.184Z,37.0
2022-11-18T03:40:35.778Z,30.7
2022-11-18T03:41:36.392Z,35.3
2022-11-18T03:42:37.006Z,32.2
2022-11-18T03:43:37.601Z,36.9
2022-11-18T03:44:38.307Z,39.5
2022-11-18T03:45:38.820Z,41.6
2022-11-18T03:46:39.410Z,35.9
2022-11-18T03:47:40.008Z,39.7
2022-11-18T03:48:40.604Z,38.5
2022-11-18T03:49:41.197Z,35.5
2022-11-18T03:50:41.793Z,31.8
2022-11-18T03:51:42.390Z,39.0
2022-11-18T03:52:42.984Z,44.7
2022-11-18T03:53:43.598Z,38.1
2022-11-18T03:54:44.193Z,39.0
2022-11-18T03:55:44.788Z,40.7
2022-11-18T03:56:45.380Z,45.5
2022-11-18T03:57:45.979Z,37.4
2022-11-18T03:58:46.571Z,33.5
2022-11-18T03:59:47.169Z,55.2
2022-11-18T04:00:47.784Z,41.2
2022-11-18T04:01:48.420Z,52.9
2022-11-18T04:02:48.995Z,49.0
2022-11-18T04:03:49.592Z,38.4
2022-11-18T04:04:50.187Z,43.2
2022-11-18T04:05:50.786Z,46.6
2022-11-18T04:06:51.402Z,39.1
2022-11-18T04:07:51.998Z,33.4
2022-11-18T04:08:52.595Z,34.9
2022-11-18T04:09:53.191Z,32.9
2022-11-18T04:10:53.785Z,30.4
2022-11-18T04:11:54.380Z,31.2
2022-11-18T04:12:54.973Z,42.9
2022-11-18T04:13:55.569Z,36.5
2022-11-18T04:14:56.163Z,38.8
2022-11-18T04:15:56.760Z,32.1
2022-11-18T04:16:57.353Z,31.3
2022-11-18T04:17:57.951Z,36.4
2022-11-18T04:19:04.410Z,30.4
2022-11-18T04:20:00.143Z,29.5
2022-11-18T04:21:00.735Z,30.0
2022-11-18T04:22:01.340Z,28.9
2022-11-18T04:23:01.935Z,29.6
2022-11-18T04:24:02.532Z,27.6
2022-11-18T04:25:03.129Z,27.5
2022-11-18T04:26:03.719Z,27.0
2022-11-18T04:27:04.311Z,29.3
2022-11-18T04:28:04.927Z,28.2
2022-11-18T04:29:05.519Z,28.0
2022-11-18T04:30:06.131Z,28.9
2022-11-18T04:31:06.723Z,30.1
2022-11-18T04:32:07.319Z,29.0
2022-11-18T04:33:07.923Z,27.4
2022-11-18T04:34:08.510Z,29.1
2022-11-18T04:35:09.109Z,27.5
2022-11-18T04:36:09.716Z,28.4
2022-11-18T04:37:10.328Z,27.2
2022-11-18T04:38:10.923Z,28.5
2022-11-18T04:39:11.538Z,28.0
2022-11-18T04:40:12.138Z,28.6
2022-11-18T04:41:12.725Z,28.8
2022-11-18T04:42:13.319Z,27.8
2022-11-18T04:43:13.912Z,27.2
2022-11-18T04:44:14.505Z,27.9
2022-11-18T04:45:15.099Z,27.1
2022-11-18T04:46:15.693Z,27.6
2022-11-18T04:47:16.288Z,28.9
2022-11-18T04:48:16.882Z,26.0
2022-11-18T04:49:17.773Z,28.4
2022-11-18T04:50:18.496Z,28.5
2022-11-18T04:51:19.089Z,28.3
2022-11-18T04:52:19.683Z,27.8
2022-11-18T04:53:20.274Z,26.2
2022-11-18T04:54:20.871Z,26.4
2022-11-18T04:55:21.464Z,26.0
2022-11-18T04:56:22.061Z,26.4
2022-11-18T04:57:22.656Z,26.1
2022-11-18T04:58:23.252Z,26.9
2022-11-18T04:59:23.866Z,27.2
2022-11-18T05:00:24.461Z,25.3
2022-11-18T05:01:25.124Z,28.1
2022-11-18T05:02:25.705Z,24.6
2022-11-18T05:03:26.297Z,26.3
2022-11-18T05:04:26.892Z,27.2
2022-11-18T05:05:27.484Z,26.0
2022-11-18T05:06:28.079Z,26.4
2022-11-18T05:07:28.736Z,24.8
2022-11-18T05:08:29.268Z,25.2
2022-11-18T05:09:31.968Z,23.9
2022-11-18T05:10:31.449Z,24.9
2022-11-18T05:11:32.043Z,24.6
2022-11-18T05:12:32.643Z,24.2
2022-11-18T05:13:33.231Z,25.2
2022-11-18T05:14:33.845Z,23.7
2022-11-18T05:15:34.438Z,23.5
2022-11-18T05:16:35.034Z,24.1
2022-11-18T05:17:35.628Z,25.0
2022-11-18T05:18:36.223Z,23.3
2022-11-18T05:19:36.815Z,24.0
2022-11-18T05:20:41.337Z,24.4
2022-11-18T05:21:38.999Z,24.2
2022-11-18T05:22:39.594Z,23.3
2022-11-18T05:23:40.205Z,22.4
2022-11-18T05:24:40.817Z,22.9
2022-11-18T05:25:41.414Z,24.0
2022-11-18T05:26:42.004Z,23.2
2022-11-18T05:27:42.598Z,23.8
2022-11-18T05:28:43.192Z,22.5
2022-11-18T05:29:43.791Z,21.2
2022-11-18T05:30:44.398Z,21.9
2022-11-18T05:31:44.990Z,21.5
2022-11-18T05:32:45.588Z,22.0
2022-11-18T05:33:46.200Z,21.4
2022-11-18T05:34:46.797Z,20.7
2022-11-18T05:35:49.980Z,20.4
2022-11-18T05:36:48.996Z,19.2
2022-11-18T05:37:49.590Z,20.2
2022-11-18T05:38:50.187Z,20.4
2022-11-18T05:39:50.780Z,20.0
2022-11-18T05:40:51.375Z,20.7
2022-11-18T05:41:51.971Z,19.7
2022-11-18T05:42:52.564Z,20.5
2022-11-18T05:43:53.158Z,19.5
2022-11-18T05:44:58.164Z,19.1
2022-11-18T05:45:55.344Z,19.5
2022-11-18T05:46:55.935Z,20.3
2022-11-18T05:47:56.534Z,18.4
2022-11-18T05:48:57.125Z,18.6
2022-11-18T05:49:57.717Z,19.5
2022-11-18T05:50:58.315Z,18.1
2022-11-18T05:51:58.907Z,17.9
2022-11-18T05:52:59.522Z,18.0
2022-11-18T05:54:00.114Z,19.3
2022-11-18T05:55:00.711Z,17.4
2022-11-18T05:56:01.304Z,18.5
2022-11-18T05:57:01.902Z,16.5
2022-11-18T05:58:02.500Z,16.1
2022-11-18T05:59:03.105Z,15.8
2022-11-18T06:00:03.701Z,16.2
2022-11-18T06:01:04.293Z,15.3
2022-11-18T06:02:04.888Z,15.1
2022-11-18T06:03:05.578Z,15.1
2022-11-18T06:04:06.153Z,15.6
2022-11-18T06:05:06.738Z,15.1
2022-11-18T06:06:07.332Z,15.4
2022-11-18T06:07:08.038Z,15.1
2022-11-18T06:08:08.615Z,15.0
2022-11-18T06:09:09.211Z,15.3
2022-11-18T06:10:09.805Z,15.2
2022-11-18T06:11:10.400Z,15.3
2022-11-18T06:12:10.991Z,15.6
2022-11-18T06:13:11.584Z,14.0
2022-11-18T06:14:12.179Z,14.4
2022-11-18T06:15:12.789Z,14.4
2022-11-18T06:16:13.385Z,14.8
2022-11-18T06:17:13.980Z,15.3
2022-11-18T06:18:14.573Z,15.3
2022-11-18T06:19:15.449Z,14.9
2022-11-18T06:20:15.775Z,16.2
2022-11-18T06:21:16.391Z,14.9
2022-11-18T06:22:16.984Z,15.8
2022-11-18T06:23:17.581Z,15.8
2022-11-18T06:24:18.197Z,15.3
2022-11-18T06:25:18.802Z,15.0
2022-11-18T06:26:19.389Z,14.8
2022-11-18T06:27:19.984Z,15.9
2022-11-18T06:28:20.575Z,15.3
2022-11-18T06:29:27.234Z,14.7
2022-11-18T06:30:22.776Z,17.3
2022-11-18T06:31:23.375Z,14.3
2022-11-18T06:32:23.967Z,16.4
2022-11-18T06:33:24.560Z,15.9
2022-11-18T06:34:25.161Z,15.5
2022-11-18T06:35:25.772Z,16.2
2022-11-18T06:36:26.367Z,15.5
2022-11-18T06:37:26.962Z,17.1
2022-11-18T06:38:27.560Z,16.2
2022-11-18T06:39:28.176Z,15.9
2022-11-18T06:40:34.264Z,15.5
2022-11-18T06:41:30.360Z,14.9
2022-11-18T06:42:30.955Z,16.8
2022-11-18T06:43:31.575Z,16.5
2022-11-18T06:44:32.189Z,16.2
2022-11-18T06:45:32.786Z,16.7
2022-11-18T06:46:33.381Z,15.7
2022-11-18T06:47:33.996Z,17.7
2022-11-18T06:48:34.594Z,16.2
2022-11-18T06:49:35.188Z,17.5
2022-11-18T06:50:35.786Z,17.7
2022-11-18T06:51:36.384Z,16.8
2022-11-18T06:52:36.980Z,17.8
2022-11-18T06:53:37.577Z,17.6
2022-11-18T06:54:38.196Z,17.2
2022-11-18T06:55:38.793Z,18.0
2022-11-18T06:56:39.393Z,17.4
2022-11-18T06:57:39.987Z,17.5
2022-11-18T06:58:40.602Z,16.8
2022-11-18T06:59:41.202Z,16.8
2022-11-18T07:00:41.828Z,17.3
2022-11-18T07:01:42.396Z,16.7
2022-11-18T07:02:42.992Z,18.1
2022-11-18T07:03:43.586Z,17.9
2022-11-18T07:04:44.187Z,18.0
2022-11-18T07:05:44.973Z,18.3
2022-11-18T07:06:45.570Z,18.1
2022-11-18T07:07:46.203Z,17.8
2022-11-18T07:08:46.817Z,18.7
2022-11-18T07:09:47.418Z,18.5
2022-11-18T07:10:48.013Z,17.2
2022-11-18T07:11:48.611Z,17.4
2022-11-18T07:12:49.210Z,19.4
2022-11-18T07:13:49.809Z,18.0
2022-11-18T07:14:50.409Z,17.8
2022-11-18T07:15:51.003Z,18.3
2022-11-18T07:16:51.601Z,17.3
2022-11-18T07:17:52.199Z,17.7
2022-11-18T07:18:52.798Z,18.3
2022-11-18T07:19:53.397Z,17.9
2022-11-18T07:20:53.999Z,18.7
2022-11-18T07:21:54.617Z,17.6
2022-11-18T07:22:55.215Z,17.5
2022-11-18T07:23:55.823Z,17.7
2022-11-18T07:24:56.432Z,18.2
2022-11-18T07:25:57.031Z,18.1
2022-11-18T07:26:57.630Z,17.7
2022-11-18T07:27:58.246Z,17.9
2022-11-18T07:28:58.844Z,17.9
2022-11-18T07:29:59.465Z,18.0
2022-11-18T07:31:00.060Z,17.5
2022-11-18T07:32:00.656Z,17.6
2022-11-18T07:33:01.275Z,17.4
2022-11-18T07:34:01.871Z,17.2
2022-11-18T07:35:02.474Z,17.2
2022-11-18T07:36:03.077Z,17.3
2022-11-18T07:37:03.684Z,17.0
2022-11-18T07:38:04.284Z,17.3
2022-11-18T07:39:04.886Z,17.3
2022-11-18T07:40:05.482Z,17.5
2022-11-18T07:41:06.079Z,16.4
2022-11-18T07:42:06.675Z,17.6
2022-11-18T07:43:07.275Z,17.7
2022-11-18T07:44:07.872Z,17.4
2022-11-18T07:45:08.471Z,17.2
2022-11-18T07:46:09.066Z,17.9
2022-11-18T07:47:09.663Z,18.5
2022-11-18T07:48:10.260Z,18.4
2022-11-18T07:49:10.878Z,17.6
2022-11-18T07:50:11.475Z,18.4
2022-11-18T07:51:12.074Z,18.3
2022-11-18T07:52:12.670Z,18.8
2022-11-18T07:53:13.267Z,18.3
2022-11-18T07:54:13.893Z,18.2
2022-11-18T07:55:14.488Z,18.5
2022-11-18T07:56:15.087Z,19.3
2022-11-18T07:57:15.689Z,20.0
2022-11-18T07:58:16.286Z,19.7
2022-11-18T07:59:17.243Z,20.6
2022-11-18T08:00:17.997Z,21.1
2022-11-18T08:01:18.657Z,19.5
2022-11-18T08:02:19.228Z,19.1
2022-11-18T08:03:19.828Z,20.0
2022-11-18T08:04:20.426Z,20.0
2022-11-18T08:05:21.110Z,19.7
2022-11-18T08:06:21.684Z,19.7
2022-11-18T08:07:22.326Z,19.2
2022-11-18T08:08:22.914Z,20.1
2022-11-18T08:09:23.514Z,19.3
2022-11-18T08:10:24.111Z,20.3
2022-11-18T08:11:24.710Z,19.3
2022-11-18T08:12:25.310Z,19.9
2022-11-18T08:13:25.912Z,19.1
2022-11-18T08:14:26.511Z,20.3
2022-11-18T08:15:27.128Z,18.8
2022-11-18T08:16:27.729Z,19.3
2022-11-18T08:17:28.329Z,18.8
2022-11-18T08:18:28.928Z,18.8
2022-11-18T08:19:29.526Z,18.8
2022-11-18T08:20:30.125Z,19.0
2022-11-18T08:21:30.730Z,18.9
2022-11-18T08:22:31.331Z,20.4
2022-11-18T08:23:34.154Z,19.5
2022-11-18T08:24:33.536Z,19.6
2022-11-18T08:25:34.138Z,20.4
2022-11-18T08:26:34.764Z,19.2
2022-11-18T08:27:35.376Z,19.9
2022-11-18T08:28:36.030Z,18.6
2022-11-18T08:29:36.575Z,19.1
2022-11-18T08:30:37.173Z,19.0
2022-11-18T08:31:37.773Z,18.9
2022-11-18T08:32:38.376Z,19.6
2022-11-18T08:33:38.974Z,18.2
2022-11-18T08:34:39.574Z,20.4
2022-11-18T08:35:40.195Z,19.0
2022-11-18T08:36:40.797Z,18.3
2022-11-18T08:37:41.395Z,18.8
2022-11-18T08:38:41.994Z,19.2
2022-11-18T08:39:42.616Z,19.5
2022-11-18T08:40:43.214Z,18.5
2022-11-18T08:41:43.816Z,18.1
2022-11-18T08:42:44.413Z,18.0
2022-11-18T08:43:45.011Z,19.7
2022-11-18T08:44:45.610Z,18.7
2022-11-18T08:45:46.221Z,18.0
2022-11-18T08:46:46.840Z,17.1
2022-11-18T08:47:47.432Z,18.0
2022-11-18T08:48:48.031Z,17.4
2022-11-18T08:49:48.631Z,17.1
2022-11-18T08:50:49.230Z,19.0
2022-11-18T08:51:49.831Z,18.4
2022-11-18T08:52:50.428Z,17.2
2022-11-18T08:53:51.027Z,17.2
2022-11-18T08:54:51.628Z,18.5
2022-11-18T08:55:56.978Z,18.5
2022-11-18T08:56:52.844Z,18.2
2022-11-18T08:57:53.444Z,16.8
2022-11-18T08:58:54.042Z,16.6
2022-11-18T08:59:54.654Z,17.5
2022-11-18T09:00:55.282Z,18.8
2022-11-18T09:01:55.874Z,17.9
2022-11-18T09:02:56.442Z,17.7
2022-11-18T09:03:57.043Z,17.5
2022-11-18T09:04:57.642Z,17.9
2022-11-18T09:05:58.242Z,16.9
2022-11-18T09:06:58.849Z,16.2
2022-11-18T09:07:59.437Z,17.9
2022-11-18T09:09:04.984Z,16.7
2022-11-18T09:10:01.643Z,17.6
2022-11-18T09:11:02.229Z,17.4
2022-11-18T09:12:02.835Z,16.3
2022-11-18T09:13:33.435Z,16.9
2022-11-18T09:15:13.446Z,17.1
2022-11-18T09:16:07.136Z,18.7
2022-11-18T09:17:07.738Z,17.7
2022-11-18T09:18:08.387Z,18.1
2022-11-18T09:19:32.043Z,18.2
2022-11-18T09:20:10.596Z,18.1
2022-11-18T09:21:11.195Z,16.8
2022-11-18T09:22:11.809Z,16.7
2022-11-18T09:23:12.409Z,15.7
2022-11-18T09:24:13.015Z,16.6
2022-11-18T09:25:13.607Z,15.6
2022-11-18T09:26:14.210Z,15.8
2022-11-18T09:27:17.419Z,16.1
2022-11-18T09:28:16.422Z,15.8
2022-11-18T09:29:17.037Z,15.6
2022-11-18T09:30:17.636Z,15.6
2022-11-18T09:31:18.235Z,15.5
2022-11-18T09:32:18.836Z,13.8
2022-11-18T09:33:20.787Z,14.5
2022-11-18T09:34:21.093Z,15.7
2022-11-18T09:35:21.659Z,14.9
2022-11-18T09:36:22.258Z,15.6
2022-11-18T09:37:22.857Z,14.4
2022-11-18T09:38:23.457Z,15.2
2022-11-18T09:39:24.055Z,14.4
2022-11-18T09:40:24.651Z,15.2
2022-11-18T09:41:25.250Z,15.4
2022-11-18T09:42:26.182Z,15.9
2022-11-18T09:43:26.799Z,16.5
2022-11-18T09:44:27.415Z,17.3
2022-11-18T09:45:28.015Z,15.2
2022-11-18T09:46:28.614Z,15.8
2022-11-18T09:47:29.212Z,15.9
2022-11-18T09:48:29.813Z,16.4
2022-11-18T09:49:30.413Z,15.4
2022-11-18T09:51:32.604Z,14.9
2022-11-18T09:52:36.178Z,15.3
2022-11-18T09:53:33.836Z,14.9
2022-11-18T09:54:34.438Z,15.7
2022-11-18T09:55:35.038Z,16.0
2022-11-18T09:56:35.823Z,14.9
2022-11-18T09:57:36.394Z,15.8
2022-11-18T09:58:36.996Z,14.6
2022-11-18T09:59:37.596Z,15.0
2022-11-18T10:00:38.198Z,15.2
2022-11-18T10:01:38.879Z,16.1
2022-11-18T10:02:39.433Z,15.0
2022-11-18T10:03:40.134Z,15.5
2022-11-18T10:04:40.664Z,15.1
2022-11-18T10:05:41.263Z,15.3
2022-11-18T10:06:41.864Z,14.9
2022-11-18T10:07:42.495Z,15.2
2022-11-18T10:08:43.076Z,15.3
2022-11-18T10:09:43.674Z,15.8
2022-11-18T10:10:44.274Z,16.1
2022-11-18T10:11:50.563Z,15.4
2022-11-18T10:12:46.465Z,16.0
2022-11-18T10:13:47.063Z,14.9
2022-11-18T10:14:47.661Z,16.1
2022-11-18T10:15:48.262Z,15.2
2022-11-18T10:16:50.859Z,15.0
2022-11-18T10:17:49.494Z,15.5
2022-11-18T10:19:00.401Z,15.4
2022-11-18T10:19:51.684Z,15.7
2022-11-18T10:20:52.283Z,15.8
2022-11-18T10:21:52.892Z,15.5
2022-11-18T10:22:53.502Z,15.2
2022-11-18T10:23:54.103Z,16.0
2022-11-18T10:24:54.706Z,15.2
2022-11-18T10:25:55.296Z,15.5
2022-11-18T10:26:55.898Z,15.6
2022-11-18T10:27:56.517Z,16.0
2022-11-18T10:28:57.118Z,16.2
2022-11-18T10:29:57.716Z,16.4
2022-11-18T10:30:58.316Z,16.5
2022-11-18T10:32:01.137Z,16.2
2022-11-18T10:33:00.531Z,16.9
2022-11-18T10:34:01.127Z,16.4
2022-11-18T10:35:01.725Z,16.2
2022-11-18T10:36:02.322Z,16.3
2022-11-18T10:37:02.923Z,15.4
2022-11-18T10:38:08.268Z,17.1
2022-11-18T10:39:05.133Z,16.9
2022-11-18T10:40:05.748Z,17.3
2022-11-18T10:41:06.348Z,18.0
2022-11-18T10:42:06.975Z,16.4
2022-11-18T10:43:07.586Z,16.9
2022-11-18T10:44:12.099Z,17.0
2022-11-18T10:45:09.778Z,17.0
2022-11-18T10:46:10.423Z,15.8
2022-11-18T10:47:10.996Z,17.3
2022-11-18T10:48:11.615Z,16.4
2022-11-18T10:49:12.217Z,15.7
2022-11-18T10:50:12.817Z,16.4
2022-11-18T10:51:13.416Z,15.7
2022-11-18T10:52:14.016Z,15.7
2022-11-18T10:53:14.615Z,15.5
2022-11-18T10:54:15.786Z,16.6
2022-11-18T10:55:15.828Z,15.3
2022-11-18T10:56:16.426Z,16.4
2022-11-18T10:57:17.025Z,15.8
2022-11-18T10:58:17.738Z,16.9
2022-11-18T10:59:18.325Z,15.7
2022-11-18T11:00:18.924Z,15.8
2022-11-18T11:01:19.614Z,16.1
2022-11-18T11:02:20.160Z,16.2
2022-11-18T11:03:20.743Z,15.1
2022-11-18T11:04:21.422Z,15.7
2022-11-18T11:05:21.969Z,16.0
2022-11-18T11:06:22.561Z,15.7
2022-11-18T11:07:23.207Z,16.6
2022-11-18T11:08:36.819Z,16.1
2022-11-18T11:09:25.372Z,16.0
2022-11-18T11:10:25.972Z,16.5
2022-11-18T11:11:26.576Z,16.2
2022-11-18T11:12:27.170Z,16.2
2022-11-18T11:13:27.765Z,16.7
2022-11-18T11:14:28.365Z,17.0
2022-11-18T11:15:28.964Z,17.1
2022-11-18T11:16:29.585Z,16.1
2022-11-18T11:17:30.231Z,16.8
2022-11-18T11:18:30.791Z,17.0
2022-11-18T11:19:31.480Z,16.6
2022-11-18T11:20:32.025Z,16.1
2022-11-18T11:21:32.623Z,16.9
2022-11-18T11:22:33.223Z,17.8
2022-11-18T11:23:33.819Z,17.2
2022-11-18T11:24:34.422Z,17.6
2022-11-18T11:28:39.816Z,17.4
2022-11-18T11:29:40.414Z,18.1
2022-11-18T11:30:45.246Z,17.6
2022-11-18T11:31:42.608Z,18.4
2022-11-18T11:32:43.207Z,18.9
2022-11-18T11:33:43.807Z,18.0
2022-11-18T11:34:44.415Z,18.6
2022-11-18T11:35:45.005Z,17.3
2022-11-18T11:36:45.604Z,18.4
2022-11-18T11:37:46.207Z,18.5
2022-11-18T11:38:46.827Z,18.2
2022-11-18T11:39:47.421Z,18.2
2022-11-18T11:40:48.024Z,18.2
2022-11-18T11:41:48.620Z,18.5
2022-11-18T11:42:49.223Z,17.3
2022-11-18T11:43:49.822Z,17.8
2022-11-18T11:44:50.442Z,18.6
2022-11-18T11:45:51.039Z,17.0
2022-11-18T11:46:51.647Z,17.7
2022-11-18T11:47:52.241Z,17.6
2022-11-18T11:48:52.843Z,17.4
2022-11-18T11:49:53.480Z,18.8
2022-11-18T11:51:03.076Z,17.5
2022-11-18T11:51:55.552Z,18.6
2022-11-18T11:52:56.146Z,17.9
2022-11-18T11:53:56.743Z,16.6
2022-11-18T11:54:57.344Z,18.3
2022-11-18T11:55:57.942Z,17.9
2022-11-18T11:56:58.543Z,16.9
2022-11-18T11:57:59.144Z,15.8
2022-11-18T11:58:59.744Z,17.5
2022-11-18T12:00:00.348Z,16.5
2022-11-18T12:01:00.944Z,16.6
2022-11-18T12:02:01.561Z,16.0
2022-11-18T12:03:02.234Z,17.3
2022-11-18T12:04:02.781Z,18.2
2022-11-18T12:05:03.399Z,17.4
2022-11-18T12:06:03.998Z,17.7
2022-11-18T12:07:04.625Z,17.3
2022-11-18T12:08:05.206Z,16.1
2022-11-18T12:09:05.980Z,16.8
2022-11-18T12:10:06.600Z,17.8
2022-11-18T12:11:07.205Z,16.6
2022-11-18T12:12:07.821Z,16.6
2022-11-18T12:13:08.423Z,16.9
2022-11-18T12:14:09.018Z,16.2
2022-11-18T12:15:09.617Z,15.9
2022-11-18T12:16:10.237Z,16.1
2022-11-18T12:17:10.857Z,16.5
2022-11-18T12:18:11.456Z,16.5
2022-11-18T12:19:12.058Z,16.3
2022-11-18T12:20:12.707Z,16.6
2022-11-18T12:21:13.277Z,16.6
2022-11-18T12:22:13.876Z,17.4
2022-11-18T12:23:14.475Z,16.8
2022-11-18T12:24:15.072Z,16.6
2022-11-18T12:25:15.671Z,17.1
2022-11-18T12:26:16.271Z,16.0
2022-11-18T12:27:16.889Z,16.6
2022-11-18T12:28:17.489Z,16.4
2022-11-18T12:29:18.432Z,17.2
2022-11-18T12:30:19.250Z,16.3
2022-11-18T12:31:19.852Z,15.8
2022-11-18T12:32:20.473Z,16.8
2022-11-18T12:33:21.074Z,15.9
2022-11-18T12:34:21.673Z,16.1
2022-11-18T12:35:22.273Z,16.7
2022-11-18T12:36:22.871Z,15.2
2022-11-18T12:37:23.470Z,15.6
2022-11-18T12:38:24.088Z,16.0
2022-11-18T12:39:24.689Z,16.2
2022-11-18T12:40:25.307Z,15.9
2022-11-18T12:41:25.909Z,15.6
2022-11-18T12:42:26.505Z,16.1
2022-11-18T12:43:27.108Z,15.6
2022-11-18T12:44:27.704Z,16.4
2022-11-18T12:45:28.305Z,15.7
2022-11-18T12:46:28.912Z,15.6
2022-11-18T12:47:29.521Z,15.7
2022-11-18T12:48:30.119Z,15.4
2022-11-18T12:49:30.720Z,15.1
2022-11-18T12:50:31.319Z,15.1
2022-11-18T12:51:31.933Z,15.7
2022-11-18T12:52:32.518Z,15.8
2022-11-18T12:53:33.119Z,15.4
2022-11-18T12:54:33.715Z,15.6
2022-11-18T12:55:34.315Z,15.9
2022-11-18T12:56:34.911Z,15.3
2022-11-18T12:57:35.511Z,15.7
2022-11-18T12:58:36.110Z,14.2
2022-11-18T12:59:36.711Z,16.1
2022-11-18T13:00:37.341Z,15.3
2022-11-18T13:01:37.912Z,16.3
2022-11-18T13:02:38.511Z,15.9
2022-11-18T13:03:39.130Z,14.0
2022-11-18T13:04:45.053Z,15.9
2022-11-18T13:05:41.320Z,14.0
2022-11-18T13:06:41.919Z,12.9
2022-11-18T13:07:42.603Z,15.0
2022-11-18T13:08:43.201Z,13.9
2022-11-18T13:09:43.800Z,15.1
2022-11-18T13:10:44.397Z,14.6
2022-11-18T13:11:45.014Z,14.0
2022-11-18T13:12:45.597Z,14.5
2022-11-18T13:13:46.203Z,13.8
2022-11-18T13:14:46.816Z,14.3
2022-11-18T13:15:47.421Z,14.7
2022-11-18T13:16:48.014Z,13.5
2022-11-18T13:17:48.630Z,14.5
2022-11-18T13:18:49.229Z,14.7
2022-11-18T13:19:49.829Z,14.5
2022-11-18T13:20:50.425Z,14.4
2022-11-18T13:21:51.023Z,15.1
2022-11-18T13:22:51.622Z,14.4
2022-11-18T13:23:57.637Z,15.2
2022-11-18T13:24:52.835Z,14.9
2022-11-18T13:25:53.431Z,14.1
2022-11-18T13:26:54.029Z,14.8
2022-11-18T13:27:54.630Z,14.7
2022-11-18T13:28:55.230Z,13.1
2022-11-18T13:29:55.893Z,14.5
2022-11-18T13:30:56.441Z,13.7
2022-11-18T13:31:57.040Z,14.4